sensor_id;sensor_type;location;lat;lon;timestamp;P1;durP1;ratioP1;P2;durP2;ratioP2
54408;SDS011;40315;48.620;9.828;2022-11-22T00:00:42;6.30;;;4.15;;
54408;SDS011;40315;48.620;9.828;2022-11-22T00:03:10;5.77;;;3.77;;
54408;SDS011;40315;48.620;9.828;2022-11-22T00:05:37;6.70;;;3.70;;
54408;SDS011;40315;48.620;9.828;2022-11-22T00:08:04;7.73;;;3.87;;
54408;SDS011;40315;48.620;9.828;2022-11-22T00:10:32;4.30;;;3.47;;
54408;SDS011;40315;48.620;9.828;2022-11-22T00:13:01;5.10;;;3.03;;
54408;SDS011;40315;48.620;9.828;2022-11-22T00:15:29;4.25;;;3.10;;
54408;SDS011;40315;48.620;9.828;2022-11-22T00:17:56;4.55;;;3.22;;
54408;SDS011;40315;48.620;9.828;2022-11-22T00:20:23;5.63;;;3.58;;
54408;SDS011;40315;48.620;9.828;2022-11-22T00:22:52;5.15;;;3.30;;
54408;SDS011;40315;48.620;9.828;2022-11-22T00:25:19;4.18;;;3.40;;
54408;SDS011;40315;48.620;9.828;2022-11-22T00:27:46;5.75;;;3.97;;
54408;SDS011;40315;48.620;9.828;2022-11-22T00:30:15;5.88;;;3.65;;
54408;SDS011;40315;48.620;9.828;2022-11-22T00:32:42;7.25;;;3.90;;
54408;SDS011;40315;48.620;9.828;2022-11-22T00:35:09;6.93;;;4.65;;
54408;SDS011;40315;48.620;9.828;2022-11-22T00:37:36;5.90;;;3.90;;
54408;SDS011;40315;48.620;9.828;2022-11-22T00:40:04;6.47;;;4.03;;
54408;SDS011;40315;48.620;9.828;2022-11-22T00:42:31;7.78;;;4.32;;
54408;SDS011;40315;48.620;9.828;2022-11-22T00:44:58;7.47;;;4.65;;
54408;SDS011;40315;48.620;9.828;2022-11-22T00:47:27;6.68;;;4.30;;
54408;SDS011;40315;48.620;9.828;2022-11-22T00:49:54;9.00;;;4.22;;
54408;SDS011;40315;48.620;9.828;2022-11-22T00:52:21;8.00;;;4.03;;
54408;SDS011;40315;48.620;9.828;2022-11-22T00:54:48;5.20;;;3.60;;
54408;SDS011;40315;48.620;9.828;2022-11-22T00:57:15;5.72;;;3.45;;
54408;SDS011;40315;48.620;9.828;2022-11-22T00:59:44;5.55;;;3.50;;
54408;SDS011;40315;48.620;9.828;2022-11-22T01:02:11;4.97;;;3.50;;
54408;SDS011;40315;48.620;9.828;2022-11-22T01:04:42;4.22;;;3.00;;
54408;SDS011;40315;48.620;9.828;2022-11-22T01:07:09;5.53;;;3.58;;
54408;SDS011;40315;48.620;9.828;2022-11-22T01:09:36;4.28;;;3.50;;
54408;SDS011;40315;48.620;9.828;2022-11-22T01:12:03;5.88;;;3.55;;
54408;SDS011;40315;48.620;9.828;2022-11-22T01:14:30;4.65;;;3.50;;
54408;SDS011;40315;48.620;9.828;2022-11-22T01:17:00;5.45;;;3.38;;
54408;SDS011;40315;48.620;9.828;2022-11-22T01:19:30;5.82;;;3.20;;
54408;SDS011;40315;48.620;9.828;2022-11-22T01:21:59;5.95;;;3.80;;
54408;SDS011;40315;48.620;9.828;2022-11-22T01:24:26;5.38;;;4.13;;
54408;SDS011;40315;48.620;9.828;2022-11-22T01:26:53;5.20;;;4.05;;
54408;SDS011;40315;48.620;9.828;2022-11-22T01:29:23;6.65;;;3.35;;
54408;SDS011;40315;48.620;9.828;2022-11-22T01:31:50;5.65;;;3.10;;
54408;SDS011;40315;48.620;9.828;2022-11-22T01:34:17;5.82;;;2.92;;
54408;SDS011;40315;48.620;9.828;2022-11-22T01:36:44;5.65;;;3.30;;
54408;SDS011;40315;48.620;9.828;2022-11-22T01:39:12;6.82;;;3.38;;
54408;SDS011;40315;48.620;9.828;2022-11-22T01:41:42;4.70;;;3.38;;
54408;SDS011;40315;48.620;9.828;2022-11-22T01:47:44;4.50;;;3.15;;
54408;SDS011;40315;48.620;9.828;2022-11-22T01:50:14;4.63;;;3.50;;
54408;SDS011;40315;48.620;9.828;2022-11-22T01:52:45;4.85;;;3.10;;
54408;SDS011;40315;48.620;9.828;2022-11-22T01:55:13;4.78;;;2.95;;
54408;SDS011;40315;48.620;9.828;2022-11-22T01:57:40;5.38;;;3.30;;
54408;SDS011;40315;48.620;9.828;2022-11-22T02:00:10;3.78;;;3.03;;
54408;SDS011;40315;48.620;9.828;2022-11-22T02:03:06;4.45;;;3.15;;
54408;SDS011;40315;48.620;9.828;2022-11-22T02:05:34;4.70;;;3.25;;
54408;SDS011;40315;48.620;9.828;2022-11-22T02:08:03;7.22;;;4.32;;
54408;SDS011;40315;48.620;9.828;2022-11-22T02:10:36;5.38;;;3.30;;
54408;SDS011;40315;48.620;9.828;2022-11-22T02:13:07;4.75;;;3.03;;
54408;SDS011;40315;48.620;9.828;2022-11-22T02:15:35;3.97;;;2.75;;
54408;SDS011;40315;48.620;9.828;2022-11-22T02:18:03;4.57;;;2.90;;
54408;SDS011;40315;48.620;9.828;2022-11-22T02:20:30;4.18;;;2.97;;
54408;SDS011;40315;48.620;9.828;2022-11-22T02:22:58;5.15;;;3.53;;
54408;SDS011;40315;48.620;9.828;2022-11-22T02:28:13;5.00;;;3.22;;
54408;SDS011;40315;48.620;9.828;2022-11-22T02:30:40;4.90;;;3.20;;
54408;SDS011;40315;48.620;9.828;2022-11-22T02:33:08;5.22;;;3.30;;
54408;SDS011;40315;48.620;9.828;2022-11-22T02:35:35;5.15;;;3.42;;
54408;SDS011;40315;48.620;9.828;2022-11-22T02:38:02;3.60;;;3.00;;
54408;SDS011;40315;48.620;9.828;2022-11-22T02:40:35;5.10;;;3.50;;
54408;SDS011;40315;48.620;9.828;2022-11-22T02:43:06;3.92;;;3.10;;
54408;SDS011;40315;48.620;9.828;2022-11-22T02:45:36;3.22;;;2.92;;
54408;SDS011;40315;48.620;9.828;2022-11-22T02:48:05;5.03;;;3.58;;
54408;SDS011;40315;48.620;9.828;2022-11-22T02:50:32;4.55;;;3.25;;
54408;SDS011;40315;48.620;9.828;2022-11-22T02:52:59;5.15;;;3.50;;
54408;SDS011;40315;48.620;9.828;2022-11-22T02:55:26;4.72;;;3.08;;
54408;SDS011;40315;48.620;9.828;2022-11-22T02:57:54;3.80;;;3.35;;
54408;SDS011;40315;48.620;9.828;2022-11-22T03:00:22;4.60;;;3.22;;
54408;SDS011;40315;48.620;9.828;2022-11-22T03:02:49;4.90;;;3.30;;
54408;SDS011;40315;48.620;9.828;2022-11-22T03:05:19;5.57;;;3.80;;
54408;SDS011;40315;48.620;9.828;2022-11-22T03:07:46;4.95;;;3.55;;
54408;SDS011;40315;48.620;9.828;2022-11-22T03:10:13;5.00;;;4.07;;
54408;SDS011;40315;48.620;9.828;2022-11-22T03:12:40;4.28;;;3.35;;
54408;SDS011;40315;48.620;9.828;2022-11-22T03:15:07;5.93;;;3.97;;
54408;SDS011;40315;48.620;9.828;2022-11-22T03:17:36;5.07;;;4.00;;
54408;SDS011;40315;48.620;9.828;2022-11-22T03:20:04;6.38;;;3.97;;
54408;SDS011;40315;48.620;9.828;2022-11-22T03:22:31;7.22;;;4.35;;
54408;SDS011;40315;48.620;9.828;2022-11-22T03:24:58;6.05;;;4.80;;
54408;SDS011;40315;48.620;9.828;2022-11-22T03:27:25;6.13;;;4.47;;
54408;SDS011;40315;48.620;9.828;2022-11-22T03:29:52;7.00;;;4.93;;
54408;SDS011;40315;48.620;9.828;2022-11-22T03:32:19;6.15;;;4.80;;
54408;SDS011;40315;48.620;9.828;2022-11-22T03:34:50;5.68;;;4.65;;
54408;SDS011;40315;48.620;9.828;2022-11-22T03:37:17;7.68;;;5.35;;
54408;SDS011;40315;48.620;9.828;2022-11-22T03:39:44;7.18;;;4.82;;
54408;SDS011;40315;48.620;9.828;2022-11-22T03:42:11;6.80;;;4.55;;
54408;SDS011;40315;48.620;9.828;2022-11-22T03:44:38;6.00;;;4.65;;
54408;SDS011;40315;48.620;9.828;2022-11-22T03:47:05;5.55;;;4.35;;
54408;SDS011;40315;48.620;9.828;2022-11-22T03:49:31;7.30;;;3.90;;
54408;SDS011;40315;48.620;9.828;2022-11-22T03:52:00;5.03;;;4.18;;
54408;SDS011;40315;48.620;9.828;2022-11-22T03:54:27;4.45;;;3.75;;
54408;SDS011;40315;48.620;9.828;2022-11-22T03:56:54;5.72;;;3.42;;
54408;SDS011;40315;48.620;9.828;2022-11-22T03:59:21;4.82;;;3.72;;
54408;SDS011;40315;48.620;9.828;2022-11-22T04:01:48;5.88;;;4.35;;
54408;SDS011;40315;48.620;9.828;2022-11-22T04:04:18;7.05;;;4.40;;
54408;SDS011;40315;48.620;9.828;2022-11-22T04:06:45;7.15;;;3.95;;
54408;SDS011;40315;48.620;9.828;2022-11-22T04:09:16;5.55;;;4.00;;
54408;SDS011;40315;48.620;9.828;2022-11-22T04:11:43;5.20;;;4.40;;
54408;SDS011;40315;48.620;9.828;2022-11-22T04:14:12;8.73;;;4.70;;
54408;SDS011;40315;48.620;9.828;2022-11-22T04:16:58;4.45;;;3.78;;
54408;SDS011;40315;48.620;9.828;2022-11-22T04:19:25;4.68;;;4.20;;
54408;SDS011;40315;48.620;9.828;2022-11-22T04:21:55;5.85;;;4.47;;
54408;SDS011;40315;48.620;9.828;2022-11-22T04:24:22;5.15;;;3.88;;
54408;SDS011;40315;48.620;9.828;2022-11-22T04:27:07;5.85;;;3.80;;
54408;SDS011;40315;48.620;9.828;2022-11-22T04:29:34;6.95;;;4.05;;
54408;SDS011;40315;48.620;9.828;2022-11-22T04:32:04;4.60;;;3.38;;
54408;SDS011;40315;48.620;9.828;2022-11-22T04:34:48;5.13;;;3.90;;
54408;SDS011;40315;48.620;9.828;2022-11-22T04:37:15;6.57;;;3.97;;
54408;SDS011;40315;48.620;9.828;2022-11-22T04:39:46;5.07;;;4.18;;
54408;SDS011;40315;48.620;9.828;2022-11-22T04:42:15;7.07;;;4.40;;
54408;SDS011;40315;48.620;9.828;2022-11-22T04:44:59;9.15;;;5.18;;
54408;SDS011;40315;48.620;9.828;2022-11-22T04:47:26;8.07;;;5.38;;
54408;SDS011;40315;48.620;9.828;2022-11-22T04:50:26;5.65;;;4.40;;
54408;SDS011;40315;48.620;9.828;2022-11-22T04:53:11;5.55;;;4.20;;
54408;SDS011;40315;48.620;9.828;2022-11-22T04:55:40;6.50;;;4.07;;
54408;SDS011;40315;48.620;9.828;2022-11-22T04:58:10;5.35;;;4.25;;
54408;SDS011;40315;48.620;9.828;2022-11-22T05:00:37;6.10;;;4.47;;
54408;SDS011;40315;48.620;9.828;2022-11-22T05:03:04;5.38;;;3.97;;
54408;SDS011;40315;48.620;9.828;2022-11-22T05:05:33;7.97;;;3.63;;
54408;SDS011;40315;48.620;9.828;2022-11-22T05:08:00;5.75;;;3.63;;
54408;SDS011;40315;48.620;9.828;2022-11-22T05:10:28;6.57;;;3.80;;
54408;SDS011;40315;48.620;9.828;2022-11-22T05:13:17;4.78;;;3.70;;
54408;SDS011;40315;48.620;9.828;2022-11-22T05:15:45;5.38;;;3.08;;
54408;SDS011;40315;48.620;9.828;2022-11-22T05:18:12;4.55;;;3.00;;
54408;SDS011;40315;48.620;9.828;2022-11-22T05:20:39;5.05;;;2.90;;
54408;SDS011;40315;48.620;9.828;2022-11-22T05:23:07;4.75;;;2.92;;
54408;SDS011;40315;48.620;9.828;2022-11-22T05:25:51;5.60;;;2.90;;
54408;SDS011;40315;48.620;9.828;2022-11-22T05:28:20;3.22;;;2.78;;
54408;SDS011;40315;48.620;9.828;2022-11-22T05:30:47;5.47;;;3.92;;
54408;SDS011;40315;48.620;9.828;2022-11-22T05:33:14;5.53;;;3.40;;
54408;SDS011;40315;48.620;9.828;2022-11-22T05:35:41;5.95;;;4.05;;
54408;SDS011;40315;48.620;9.828;2022-11-22T05:38:10;6.32;;;4.55;;
54408;SDS011;40315;48.620;9.828;2022-11-22T05:40:37;8.23;;;5.03;;
54408;SDS011;40315;48.620;9.828;2022-11-22T05:43:04;8.52;;;4.97;;
54408;SDS011;40315;48.620;9.828;2022-11-22T05:45:33;7.28;;;4.70;;
54408;SDS011;40315;48.620;9.828;2022-11-22T05:48:00;6.07;;;4.88;;
54408;SDS011;40315;48.620;9.828;2022-11-22T05:50:27;6.00;;;4.15;;
54408;SDS011;40315;48.620;9.828;2022-11-22T05:52:59;6.65;;;4.30;;
54408;SDS011;40315;48.620;9.828;2022-11-22T05:55:27;7.07;;;4.07;;
54408;SDS011;40315;48.620;9.828;2022-11-22T05:57:54;7.88;;;4.25;;
54408;SDS011;40315;48.620;9.828;2022-11-22T06:00:21;5.57;;;3.88;;
54408;SDS011;40315;48.620;9.828;2022-11-22T06:02:49;5.53;;;4.20;;
54408;SDS011;40315;48.620;9.828;2022-11-22T06:05:16;5.43;;;3.83;;
54408;SDS011;40315;48.620;9.828;2022-11-22T06:07:44;6.00;;;3.70;;
54408;SDS011;40315;48.620;9.828;2022-11-22T06:10:11;5.25;;;3.85;;
54408;SDS011;40315;48.620;9.828;2022-11-22T06:12:38;5.68;;;3.17;;
54408;SDS011;40315;48.620;9.828;2022-11-22T06:15:05;5.50;;;3.63;;
54408;SDS011;40315;48.620;9.828;2022-11-22T06:17:33;8.60;;;4.68;;
54408;SDS011;40315;48.620;9.828;2022-11-22T06:20:01;6.68;;;3.63;;
54408;SDS011;40315;48.620;9.828;2022-11-22T06:22:29;8.13;;;4.30;;
54408;SDS011;40315;48.620;9.828;2022-11-22T06:24:56;7.82;;;3.78;;
54408;SDS011;40315;48.620;9.828;2022-11-22T06:27:23;4.93;;;3.20;;
54408;SDS011;40315;48.620;9.828;2022-11-22T06:29:50;6.38;;;3.50;;
54408;SDS011;40315;48.620;9.828;2022-11-22T06:32:18;7.40;;;3.38;;
54408;SDS011;40315;48.620;9.828;2022-11-22T06:34:44;5.32;;;3.30;;
54408;SDS011;40315;48.620;9.828;2022-11-22T06:37:14;7.55;;;3.03;;
54408;SDS011;40315;48.620;9.828;2022-11-22T06:39:41;4.47;;;2.83;;
54408;SDS011;40315;48.620;9.828;2022-11-22T06:42:08;5.50;;;3.13;;
54408;SDS011;40315;48.620;9.828;2022-11-22T06:44:35;6.65;;;3.25;;
54408;SDS011;40315;48.620;9.828;2022-11-22T06:47:02;5.68;;;4.03;;
54408;SDS011;40315;48.620;9.828;2022-11-22T06:49:29;7.38;;;4.00;;
54408;SDS011;40315;48.620;9.828;2022-11-22T06:51:56;5.20;;;3.47;;
54408;SDS011;40315;48.620;9.828;2022-11-22T06:54:24;6.68;;;3.90;;
54408;SDS011;40315;48.620;9.828;2022-11-22T06:56:51;7.70;;;4.03;;
54408;SDS011;40315;48.620;9.828;2022-11-22T06:59:18;5.20;;;3.00;;
54408;SDS011;40315;48.620;9.828;2022-11-22T07:01:50;8.07;;;3.33;;
54408;SDS011;40315;48.620;9.828;2022-11-22T07:04:20;6.10;;;3.10;;
54408;SDS011;40315;48.620;9.828;2022-11-22T07:06:48;6.72;;;2.78;;
54408;SDS011;40315;48.620;9.828;2022-11-22T07:09:17;7.40;;;2.90;;
54408;SDS011;40315;48.620;9.828;2022-11-22T07:11:45;5.72;;;2.88;;
54408;SDS011;40315;48.620;9.828;2022-11-22T07:14:13;5.47;;;2.95;;
54408;SDS011;40315;48.620;9.828;2022-11-22T07:16:40;5.63;;;2.70;;
54408;SDS011;40315;48.620;9.828;2022-11-22T07:19:09;7.25;;;4.70;;
54408;SDS011;40315;48.620;9.828;2022-11-22T07:21:36;4.03;;;3.13;;
54408;SDS011;40315;48.620;9.828;2022-11-22T07:24:06;8.93;;;2.45;;
54408;SDS011;40315;48.620;9.828;2022-11-22T07:26:33;4.25;;;2.03;;
54408;SDS011;40315;48.620;9.828;2022-11-22T07:29:02;5.97;;;2.70;;
54408;SDS011;40315;48.620;9.828;2022-11-22T07:31:29;5.60;;;2.65;;
54408;SDS011;40315;48.620;9.828;2022-11-22T07:33:56;9.55;;;3.55;;
54408;SDS011;40315;48.620;9.828;2022-11-22T07:36:23;5.28;;;2.75;;
54408;SDS011;40315;48.620;9.828;2022-11-22T07:38:52;5.22;;;3.28;;
54408;SDS011;40315;48.620;9.828;2022-11-22T07:41:22;5.68;;;3.28;;
54408;SDS011;40315;48.620;9.828;2022-11-22T07:43:49;6.40;;;2.65;;
54408;SDS011;40315;48.620;9.828;2022-11-22T07:46:22;9.20;;;3.60;;
54408;SDS011;40315;48.620;9.828;2022-11-22T07:48:53;5.47;;;2.90;;
54408;SDS011;40315;48.620;9.828;2022-11-22T07:51:21;7.47;;;3.58;;
54408;SDS011;40315;48.620;9.828;2022-11-22T07:53:49;9.82;;;3.85;;
54408;SDS011;40315;48.620;9.828;2022-11-22T07:56:16;4.30;;;3.35;;
54408;SDS011;40315;48.620;9.828;2022-11-22T07:58:43;3.80;;;2.47;;
54408;SDS011;40315;48.620;9.828;2022-11-22T08:01:11;7.10;;;2.70;;
54408;SDS011;40315;48.620;9.828;2022-11-22T08:03:40;5.65;;;2.83;;
54408;SDS011;40315;48.620;9.828;2022-11-22T08:06:09;4.50;;;2.80;;
54408;SDS011;40315;48.620;9.828;2022-11-22T08:08:37;6.35;;;2.58;;
54408;SDS011;40315;48.620;9.828;2022-11-22T08:11:04;5.45;;;3.00;;
54408;SDS011;40315;48.620;9.828;2022-11-22T08:13:32;5.20;;;2.60;;
54408;SDS011;40315;48.620;9.828;2022-11-22T08:16:00;7.53;;;2.80;;
54408;SDS011;40315;48.620;9.828;2022-11-22T08:18:31;6.35;;;3.42;;
54408;SDS011;40315;48.620;9.828;2022-11-22T08:21:04;5.90;;;2.58;;
54408;SDS011;40315;48.620;9.828;2022-11-22T08:23:35;7.07;;;3.13;;
54408;SDS011;40315;48.620;9.828;2022-11-22T08:26:03;3.67;;;2.40;;
54408;SDS011;40315;48.620;9.828;2022-11-22T08:28:33;6.32;;;2.67;;
54408;SDS011;40315;48.620;9.828;2022-11-22T08:31:01;7.47;;;3.00;;
54408;SDS011;40315;48.620;9.828;2022-11-22T08:33:30;7.20;;;2.40;;
54408;SDS011;40315;48.620;9.828;2022-11-22T08:35:57;7.82;;;2.78;;
54408;SDS011;40315;48.620;9.828;2022-11-22T08:38:25;7.03;;;2.53;;
54408;SDS011;40315;48.620;9.828;2022-11-22T08:40:53;5.53;;;2.28;;
54408;SDS011;40315;48.620;9.828;2022-11-22T08:43:20;6.53;;;3.20;;
54408;SDS011;40315;48.620;9.828;2022-11-22T08:45:47;5.05;;;3.38;;
54408;SDS011;40315;48.620;9.828;2022-11-22T08:48:18;15.50;;;6.60;;
54408;SDS011;40315;48.620;9.828;2022-11-22T08:50:48;43.00;;;16.30;;
54408;SDS011;40315;48.620;9.828;2022-11-22T08:53:16;39.10;;;15.05;;
54408;SDS011;40315;48.620;9.828;2022-11-22T08:55:44;35.35;;;12.70;;
54408;SDS011;40315;48.620;9.828;2022-11-22T08:58:11;23.15;;;13.10;;
54408;SDS011;40315;48.620;9.828;2022-11-22T09:00:38;17.88;;;9.93;;
54408;SDS011;40315;48.620;9.828;2022-11-22T09:03:07;11.05;;;7.75;;
54408;SDS011;40315;48.620;9.828;2022-11-22T09:05:35;15.40;;;6.15;;
54408;SDS011;40315;48.620;9.828;2022-11-22T09:08:05;9.70;;;5.53;;
54408;SDS011;40315;48.620;9.828;2022-11-22T09:10:32;13.50;;;6.10;;
54408;SDS011;40315;48.620;9.828;2022-11-22T09:13:00;20.85;;;6.90;;
54408;SDS011;40315;48.620;9.828;2022-11-22T09:15:27;16.75;;;5.57;;
54408;SDS011;40315;48.620;9.828;2022-11-22T09:17:58;11.35;;;4.60;;
54408;SDS011;40315;48.620;9.828;2022-11-22T09:20:26;9.93;;;4.55;;
54408;SDS011;40315;48.620;9.828;2022-11-22T09:22:53;8.73;;;3.92;;
54408;SDS011;40315;48.620;9.828;2022-11-22T09:25:20;6.15;;;3.78;;
54408;SDS011;40315;48.620;9.828;2022-11-22T09:27:47;8.57;;;3.80;;
54408;SDS011;40315;48.620;9.828;2022-11-22T09:30:16;7.47;;;4.00;;
54408;SDS011;40315;48.620;9.828;2022-11-22T09:32:45;5.75;;;3.58;;
54408;SDS011;40315;48.620;9.828;2022-11-22T09:35:12;4.50;;;3.30;;
54408;SDS011;40315;48.620;9.828;2022-11-22T09:37:43;5.57;;;3.58;;
54408;SDS011;40315;48.620;9.828;2022-11-22T09:40:10;6.65;;;3.78;;
54408;SDS011;40315;48.620;9.828;2022-11-22T09:42:46;6.60;;;3.05;;
54408;SDS011;40315;48.620;9.828;2022-11-22T09:48:39;5.78;;;3.30;;
54408;SDS011;40315;48.620;9.828;2022-11-22T09:51:16;5.78;;;3.58;;
54408;SDS011;40315;48.620;9.828;2022-11-22T09:53:47;7.85;;;4.00;;
54408;SDS011;40315;48.620;9.828;2022-11-22T09:56:19;11.93;;;5.10;;
54408;SDS011;40315;48.620;9.828;2022-11-22T09:58:51;10.55;;;5.38;;
54408;SDS011;40315;48.620;9.828;2022-11-22T10:01:25;5.90;;;3.72;;
54408;SDS011;40315;48.620;9.828;2022-11-22T10:03:53;4.95;;;2.42;;
54408;SDS011;40315;48.620;9.828;2022-11-22T10:06:29;4.50;;;2.08;;
54408;SDS011;40315;48.620;9.828;2022-11-22T10:09:03;6.78;;;3.65;;
54408;SDS011;40315;48.620;9.828;2022-11-22T10:11:37;9.00;;;3.75;;
54408;SDS011;40315;48.620;9.828;2022-11-22T10:14:11;5.78;;;2.08;;
54408;SDS011;40315;48.620;9.828;2022-11-22T10:16:59;4.55;;;2.10;;
54408;SDS011;40315;48.620;9.828;2022-11-22T10:19:33;5.13;;;2.05;;
54408;SDS011;40315;48.620;9.828;2022-11-22T10:22:06;4.80;;;2.55;;
54408;SDS011;40315;48.620;9.828;2022-11-22T10:24:37;6.00;;;1.85;;
54408;SDS011;40315;48.620;9.828;2022-11-22T10:27:05;4.43;;;1.73;;
54408;SDS011;40315;48.620;9.828;2022-11-22T10:29:38;5.50;;;1.95;;
54408;SDS011;40315;48.620;9.828;2022-11-22T10:32:13;5.35;;;1.85;;
54408;SDS011;40315;48.620;9.828;2022-11-22T10:35:00;5.22;;;1.45;;
54408;SDS011;40315;48.620;9.828;2022-11-22T10:37:48;4.13;;;1.67;;
54408;SDS011;40315;48.620;9.828;2022-11-22T10:40:22;4.00;;;1.33;;
54408;SDS011;40315;48.620;9.828;2022-11-22T10:43:09;5.97;;;1.70;;
54408;SDS011;40315;48.620;9.828;2022-11-22T10:45:48;4.05;;;1.25;;
54408;SDS011;40315;48.620;9.828;2022-11-22T10:48:25;4.10;;;1.38;;
54408;SDS011;40315;48.620;9.828;2022-11-22T10:50:57;5.55;;;1.38;;
54408;SDS011;40315;48.620;9.828;2022-11-22T10:53:33;3.83;;;1.48;;
54408;SDS011;40315;48.620;9.828;2022-11-22T10:56:13;3.88;;;1.55;;
54408;SDS011;40315;48.620;9.828;2022-11-22T11:01:44;5.00;;;1.50;;
54408;SDS011;40315;48.620;9.828;2022-11-22T11:04:19;3.28;;;1.67;;
54408;SDS011;40315;48.620;9.828;2022-11-22T11:06:49;5.80;;;1.60;;
54408;SDS011;40315;48.620;9.828;2022-11-22T11:09:30;4.97;;;2.20;;
54408;SDS011;40315;48.620;9.828;2022-11-22T11:12:00;4.07;;;1.75;;
54408;SDS011;40315;48.620;9.828;2022-11-22T11:14:35;3.15;;;1.38;;
54408;SDS011;40315;48.620;9.828;2022-11-22T11:17:05;5.75;;;1.48;;
54408;SDS011;40315;48.620;9.828;2022-11-22T11:19:36;3.92;;;1.48;;
54408;SDS011;40315;48.620;9.828;2022-11-22T11:22:11;3.92;;;1.58;;
54408;SDS011;40315;48.620;9.828;2022-11-22T11:24:42;4.72;;;1.60;;
54408;SDS011;40315;48.620;9.828;2022-11-22T11:27:09;5.20;;;1.88;;
54408;SDS011;40315;48.620;9.828;2022-11-22T11:29:39;4.72;;;1.75;;
54408;SDS011;40315;48.620;9.828;2022-11-22T11:32:09;5.95;;;3.80;;
54408;SDS011;40315;48.620;9.828;2022-11-22T11:34:40;5.53;;;2.83;;
54408;SDS011;40315;48.620;9.828;2022-11-22T11:39:59;2.42;;;1.70;;
54408;SDS011;40315;48.620;9.828;2022-11-22T11:42:27;5.20;;;1.52;;
54408;SDS011;40315;48.620;9.828;2022-11-22T11:45:17;7.65;;;2.60;;
54408;SDS011;40315;48.620;9.828;2022-11-22T11:47:48;4.05;;;1.70;;
54408;SDS011;40315;48.620;9.828;2022-11-22T11:50:17;4.25;;;1.90;;
54408;SDS011;40315;48.620;9.828;2022-11-22T11:52:49;5.13;;;1.77;;
54408;SDS011;40315;48.620;9.828;2022-11-22T11:55:18;4.65;;;1.40;;
54408;SDS011;40315;48.620;9.828;2022-11-22T11:57:47;6.05;;;1.50;;
54408;SDS011;40315;48.620;9.828;2022-11-22T12:00:19;5.72;;;2.28;;
54408;SDS011;40315;48.620;9.828;2022-11-22T12:02:50;5.28;;;1.60;;
54408;SDS011;40315;48.620;9.828;2022-11-22T12:05:26;5.75;;;2.35;;
54408;SDS011;40315;48.620;9.828;2022-11-22T12:07:55;4.13;;;1.58;;
54408;SDS011;40315;48.620;9.828;2022-11-22T12:10:26;4.53;;;2.60;;
54408;SDS011;40315;48.620;9.828;2022-11-22T12:13:00;2.75;;;1.35;;
54408;SDS011;40315;48.620;9.828;2022-11-22T12:15:34;3.80;;;1.20;;
54408;SDS011;40315;48.620;9.828;2022-11-22T12:18:11;3.92;;;1.05;;
54408;SDS011;40315;48.620;9.828;2022-11-22T12:21:05;2.28;;;0.90;;
54408;SDS011;40315;48.620;9.828;2022-11-22T12:23:43;1.27;;;1.10;;
54408;SDS011;40315;48.620;9.828;2022-11-22T12:26:15;4.00;;;1.35;;
54408;SDS011;40315;48.620;9.828;2022-11-22T12:28:42;5.10;;;1.45;;
54408;SDS011;40315;48.620;9.828;2022-11-22T12:31:12;4.32;;;1.90;;
54408;SDS011;40315;48.620;9.828;2022-11-22T12:33:46;2.42;;;0.82;;
54408;SDS011;40315;48.620;9.828;2022-11-22T12:36:21;2.80;;;0.90;;
54408;SDS011;40315;48.620;9.828;2022-11-22T12:38:52;5.55;;;1.50;;
54408;SDS011;40315;48.620;9.828;2022-11-22T12:41:24;3.08;;;1.00;;
54408;SDS011;40315;48.620;9.828;2022-11-22T12:43:54;5.60;;;1.00;;
54408;SDS011;40315;48.620;9.828;2022-11-22T12:46:24;3.92;;;1.20;;
54408;SDS011;40315;48.620;9.828;2022-11-22T12:48:54;3.53;;;1.50;;
54408;SDS011;40315;48.620;9.828;2022-11-22T12:51:26;4.07;;;1.20;;
54408;SDS011;40315;48.620;9.828;2022-11-22T12:54:03;2.70;;;1.15;;
54408;SDS011;40315;48.620;9.828;2022-11-22T12:56:38;5.63;;;1.00;;
54408;SDS011;40315;48.620;9.828;2022-11-22T12:59:14;2.40;;;1.40;;
54408;SDS011;40315;48.620;9.828;2022-11-22T13:01:46;2.65;;;1.30;;
54408;SDS011;40315;48.620;9.828;2022-11-22T13:04:25;2.80;;;1.02;;
54408;SDS011;40315;48.620;9.828;2022-11-22T13:07:00;3.28;;;1.20;;
54408;SDS011;40315;48.620;9.828;2022-11-22T13:09:33;4.47;;;1.25;;
54408;SDS011;40315;48.620;9.828;2022-11-22T13:12:04;2.38;;;0.98;;
54408;SDS011;40315;48.620;9.828;2022-11-22T13:14:35;6.05;;;1.58;;
54408;SDS011;40315;48.620;9.828;2022-11-22T13:17:05;4.38;;;1.30;;
54408;SDS011;40315;48.620;9.828;2022-11-22T13:19:34;3.63;;;1.15;;
54408;SDS011;40315;48.620;9.828;2022-11-22T13:22:11;3.00;;;1.42;;
54408;SDS011;40315;48.620;9.828;2022-11-22T13:24:53;3.38;;;1.05;;
54408;SDS011;40315;48.620;9.828;2022-11-22T13:27:42;3.25;;;1.55;;
54408;SDS011;40315;48.620;9.828;2022-11-22T13:30:16;1.95;;;0.93;;
54408;SDS011;40315;48.620;9.828;2022-11-22T13:32:45;2.00;;;0.80;;
54408;SDS011;40315;48.620;9.828;2022-11-22T13:35:21;5.95;;;1.45;;
54408;SDS011;40315;48.620;9.828;2022-11-22T13:37:54;3.08;;;1.17;;
54408;SDS011;40315;48.620;9.828;2022-11-22T13:40:26;3.70;;;1.38;;
54408;SDS011;40315;48.620;9.828;2022-11-22T13:45:59;2.83;;;0.90;;
54408;SDS011;40315;48.620;9.828;2022-11-22T13:51:48;3.78;;;0.88;;
54408;SDS011;40315;48.620;9.828;2022-11-22T13:54:38;3.17;;;1.25;;
54408;SDS011;40315;48.620;9.828;2022-11-22T13:57:24;2.20;;;1.33;;
54408;SDS011;40315;48.620;9.828;2022-11-22T14:03:19;5.10;;;1.42;;
54408;SDS011;40315;48.620;9.828;2022-11-22T14:05:52;9.15;;;4.47;;
54408;SDS011;40315;48.620;9.828;2022-11-22T14:08:25;5.05;;;2.90;;
54408;SDS011;40315;48.620;9.828;2022-11-22T14:11:09;4.47;;;1.50;;
54408;SDS011;40315;48.620;9.828;2022-11-22T14:13:50;4.90;;;1.35;;
54408;SDS011;40315;48.620;9.828;2022-11-22T14:16:26;2.75;;;1.60;;
54408;SDS011;40315;48.620;9.828;2022-11-22T14:19:09;2.50;;;1.13;;
54408;SDS011;40315;48.620;9.828;2022-11-22T14:21:51;4.45;;;1.17;;
54408;SDS011;40315;48.620;9.828;2022-11-22T14:24:44;3.00;;;1.10;;
54408;SDS011;40315;48.620;9.828;2022-11-22T14:27:28;3.50;;;1.42;;
54408;SDS011;40315;48.620;9.828;2022-11-22T14:30:03;3.35;;;1.60;;
54408;SDS011;40315;48.620;9.828;2022-11-22T14:32:38;3.97;;;2.40;;
54408;SDS011;40315;48.620;9.828;2022-11-22T14:35:24;2.10;;;1.60;;
54408;SDS011;40315;48.620;9.828;2022-11-22T14:37:57;4.25;;;1.40;;
54408;SDS011;40315;48.620;9.828;2022-11-22T14:40:33;5.68;;;1.73;;
54408;SDS011;40315;48.620;9.828;2022-11-22T14:43:17;3.40;;;1.33;;
54408;SDS011;40315;48.620;9.828;2022-11-22T14:46:01;4.72;;;1.90;;
54408;SDS011;40315;48.620;9.828;2022-11-22T14:48:42;5.07;;;1.17;;
54408;SDS011;40315;48.620;9.828;2022-11-22T14:51:19;4.18;;;1.15;;
54408;SDS011;40315;48.620;9.828;2022-11-22T14:53:51;5.32;;;1.48;;
54408;SDS011;40315;48.620;9.828;2022-11-22T14:56:21;3.53;;;1.05;;
54408;SDS011;40315;48.620;9.828;2022-11-22T14:58:57;7.43;;;3.05;;
54408;SDS011;40315;48.620;9.828;2022-11-22T15:01:45;15.05;;;5.97;;
54408;SDS011;40315;48.620;9.828;2022-11-22T15:07:23;3.95;;;1.50;;
54408;SDS011;40315;48.620;9.828;2022-11-22T15:10:18;4.20;;;1.60;;
54408;SDS011;40315;48.620;9.828;2022-11-22T15:13:02;4.70;;;1.90;;
54408;SDS011;40315;48.620;9.828;2022-11-22T15:15:49;3.85;;;1.70;;
54408;SDS011;40315;48.620;9.828;2022-11-22T15:18:21;4.07;;;1.73;;
54408;SDS011;40315;48.620;9.828;2022-11-22T15:20:52;4.40;;;1.80;;
54408;SDS011;40315;48.620;9.828;2022-11-22T15:23:20;3.28;;;1.48;;
54408;SDS011;40315;48.620;9.828;2022-11-22T15:25:48;5.00;;;1.60;;
54408;SDS011;40315;48.620;9.828;2022-11-22T15:28:24;2.40;;;1.25;;
54408;SDS011;40315;48.620;9.828;2022-11-22T15:30:56;4.10;;;1.17;;
54408;SDS011;40315;48.620;9.828;2022-11-22T15:33:26;3.47;;;1.20;;
54408;SDS011;40315;48.620;9.828;2022-11-22T15:36:07;1.77;;;1.10;;
54408;SDS011;40315;48.620;9.828;2022-11-22T15:38:48;5.43;;;1.60;;